地図

経路データ

SID SEASON NUMBER BASIN SUBBASIN NAME ISO_TIME NATURE LAT LON WMO_WIND WMO_PRES WMO_AGENCY TRACK_TYPE DIST2LAND LANDFALL IFLAG USA_AGENCY USA_ATCF_ID USA_LAT USA_LON USA_RECORD USA_STATUS USA_WIND USA_PRES USA_SSHS USA_R34_NE USA_R34_SE USA_R34_SW USA_R34_NW USA_R50_NE USA_R50_SE USA_R50_SW USA_R50_NW USA_R64_NE USA_R64_SE USA_R64_SW USA_R64_NW USA_POCI USA_ROCI USA_RMW USA_EYE TOKYO_LAT TOKYO_LON TOKYO_GRADE TOKYO_WIND TOKYO_PRES TOKYO_R50_DIR TOKYO_R50_LONG TOKYO_R50_SHORT TOKYO_R30_DIR TOKYO_R30_LONG TOKYO_R30_SHORT TOKYO_LAND CMA_LAT CMA_LON CMA_CAT CMA_WIND CMA_PRES HKO_LAT HKO_LON HKO_CAT HKO_WIND HKO_PRES NEWDELHI_LAT NEWDELHI_LON NEWDELHI_GRADE NEWDELHI_WIND NEWDELHI_PRES NEWDELHI_CI NEWDELHI_DP NEWDELHI_POCI REUNION_LAT REUNION_LON REUNION_TYPE REUNION_WIND REUNION_PRES REUNION_TNUM REUNION_CI REUNION_RMW REUNION_R34_NE REUNION_R34_SE REUNION_R34_SW REUNION_R34_NW REUNION_R50_NE REUNION_R50_SE REUNION_R50_SW REUNION_R50_NW REUNION_R64_NE REUNION_R64_SE REUNION_R64_SW REUNION_R64_NW BOM_LAT BOM_LON BOM_TYPE BOM_WIND BOM_PRES BOM_TNUM BOM_CI BOM_RMW BOM_R34_NE BOM_R34_SE BOM_R34_SW BOM_R34_NW BOM_R50_NE BOM_R50_SE BOM_R50_SW BOM_R50_NW BOM_R64_NE BOM_R64_SE BOM_R64_SW BOM_R64_NW BOM_ROCI BOM_POCI BOM_EYE BOM_POS_METHOD BOM_PRES_METHOD NADI_LAT NADI_LON NADI_CAT NADI_WIND NADI_PRES WELLINGTON_LAT WELLINGTON_LON WELLINGTON_WIND WELLINGTON_PRES DS824_LAT DS824_LON DS824_STAGE DS824_WIND DS824_PRES TD9636_LAT TD9636_LON TD9636_STAGE TD9636_WIND TD9636_PRES TD9635_LAT TD9635_LON TD9635_WIND TD9635_PRES TD9635_ROCI NEUMANN_LAT NEUMANN_LON NEUMANN_CLASS NEUMANN_WIND NEUMANN_PRES MLC_LAT MLC_LON MLC_CLASS MLC_WIND MLC_PRES USA_GUST BOM_GUST BOM_GUST_PER REUNION_GUST REUNION_GUST_PER USA_SEAHGT USA_SEARAD_NE USA_SEARAD_SE USA_SEARAD_SW USA_SEARAD_NW STORM_SPEED STORM_DIR
1892198N18139 1892 25 WP MM NOT_NAMED 1892-07-15 16:00:00 NR 17.6000 138.600 main 1531 1512 __________O___ -1 17.6000 138.600 7 5 268
1892198N18139 1892 25 WP MM NOT_NAMED 1892-07-15 18:00:00 NR 17.5953 138.431 main 1512 1492 __________P___ -1 17.5953 138.431 7 5 269
1892198N18139 1892 25 WP MM NOT_NAMED 1892-07-15 21:00:00 NR 17.5961 138.179 main 1492 1462 __________P___ -1 17.5961 138.179 7 5 273
1892198N18139 1892 25 WP MM NOT_NAMED 1892-07-16 00:00:00 NR 17.6175 137.928 main 1462 1447 __________P___ -1 17.6175 137.928 7 5 279
1892198N18139 1892 25 WP MM NOT_NAMED 1892-07-16 03:00:00 NR 17.6722 137.681 main 1447 1438 __________P___ -1 17.6722 137.681 7 5 285
1892198N18139 1892 25 WP MM NOT_NAMED 1892-07-16 04:00:00 NR 17.7000 137.600 main 1438 1423 __________O___ -1 17.7000 137.600 7 5 293
1892198N18139 1892 25 WP MM NOT_NAMED 1892-07-16 06:00:00 NR 17.7713 137.439 main 1423 1408 __________P___ -1 17.7713 137.439 7 5 299
1892198N18139 1892 25 WP MM NOT_NAMED 1892-07-16 09:00:00 NR 17.9099 137.197 main 1408 1390 __________P___ -1 17.9099 137.197 7 6 303
1892198N18139 1892 25 WP MM NOT_NAMED 1892-07-16 12:00:00 NR 18.0726 136.949 main 1390 1376 __________P___ -1 18.0726 136.949 7 6 305
1892198N18139 1892 25 WP MM NOT_NAMED 1892-07-16 15:00:00 NR 18.2438 136.690 main 1376 1372 __________P___ -1 18.2438 136.690 7 6 304
1892198N18139 1892 25 WP MM NOT_NAMED 1892-07-16 16:00:00 NR 18.3000 136.600 main 1372 1359 __________O___ -1 18.3000 136.600 7 6 299
1892198N18139 1892 25 WP MM NOT_NAMED 1892-07-16 18:00:00 NR 18.3975 136.401 main 1359 1337 __________P___ -1 18.3975 136.401 7 7 297
1892198N18139 1892 25 WP MM NOT_NAMED 1892-07-16 21:00:00 NR 18.5436 136.089 main 1337 1321 __________P___ -1 18.5436 136.089 7 7 297
1892198N18139 1892 25 WP MM NOT_NAMED 1892-07-17 00:00:00 NR 18.6923 135.779 main 1321 1301 __________P___ -1 18.6923 135.779 7 6 298
1892198N18139 1892 25 WP MM NOT_NAMED 1892-07-17 03:00:00 NR 18.8467 135.489 main 1301 1298 __________P___ -1 18.8467 135.489 7 6 300
1892198N18139 1892 25 WP MM NOT_NAMED 1892-07-17 04:00:00 NR 18.9000 135.400 main 1298 1285 __________O___ -1 18.9000 135.400 7 6 303
1892198N18139 1892 25 WP MM NOT_NAMED 1892-07-17 06:00:00 NR 19.0056 135.236 main 1285 1270 __________P___ -1 19.0056 135.236 7 5 306
1892198N18139 1892 25 WP MM NOT_NAMED 1892-07-17 09:00:00 NR 19.1703 135.015 main 1275 1262 __________P___ -1 19.1703 135.015 7 5 311
1892198N18139 1892 25 WP MM NOT_NAMED 1892-07-17 12:00:00 NR 19.3453 134.821 main 1262 1257 __________P___ -1 19.3453 134.821 7 5 317
1892198N18139 1892 25 WP MM NOT_NAMED 1892-07-17 15:00:00 NR 19.5337 134.652 main 1263 1253 __________P___ -1 19.5337 134.652 7 5 321
1892198N18139 1892 25 WP MM NOT_NAMED 1892-07-17 16:00:00 NR 19.6000 134.600 main 1259 1255 __________O___ -1 19.6000 134.600 7 5 325
1892198N18139 1892 25 WP MM NOT_NAMED 1892-07-17 18:00:00 NR 19.7359 134.499 main 1255 1252 __________P___ -1 19.7359 134.499 7 5 328
1892198N18139 1892 25 WP MM NOT_NAMED 1892-07-17 21:00:00 NR 19.9523 134.368 main 1263 1254 __________P___ -1 19.9523 134.368 7 5 332
1892198N18139 1892 25 WP MM NOT_NAMED 1892-07-18 00:00:00 NR 20.1811 134.250 main 1259 1231 __________P___ -1 20.1811 134.250 7 5 335
1892198N18139 1892 25 WP MM NOT_NAMED 1892-07-18 03:00:00 NR 20.4192 134.138 main 1231 1221 __________P___ -1 20.4192 134.138 7 5 336
1892198N18139 1892 25 WP MM NOT_NAMED 1892-07-18 04:00:00 NR 20.5000 134.100 main 1221 1196 __________O___ -1 20.5000 134.100 7 5 334
1892198N18139 1892 25 WP MM NOT_NAMED 1892-07-18 06:00:00 NR 20.6557 134.019 main 1196 1172 __________P___ -1 20.6557 134.019 7 5 334
1892198N18139 1892 25 WP MM NOT_NAMED 1892-07-18 09:00:00 NR 20.8954 133.898 main 1172 1148 __________P___ -1 20.8954 133.898 7 5 335
1892198N18139 1892 25 WP MM NOT_NAMED 1892-07-18 12:00:00 NR 21.1454 133.774 main 1148 1110 __________P___ -1 21.1454 133.774 7 6 335
1892198N18139 1892 25 WP MM NOT_NAMED 1892-07-18 15:00:00 NR 21.4087 133.645 main 1110 1099 __________P___ -1 21.4087 133.645 7 6 336
1892198N18139 1892 25 WP MM NOT_NAMED 1892-07-18 16:00:00 NR 21.5000 133.600 main 1099 1075 __________O___ -1 21.5000 133.600 7 6 334
1892198N18139 1892 25 WP MM NOT_NAMED 1892-07-18 18:00:00 NR 21.6886 133.501 main 1075 1037 __________P___ -1 21.6886 133.501 7 7 334
1892198N18139 1892 25 WP MM NOT_NAMED 1892-07-18 21:00:00 NR 21.9841 133.345 main 1037 1002 __________P___ -1 21.9841 133.345 7 7 334
1892198N18139 1892 25 WP MM NOT_NAMED 1892-07-19 00:00:00 NR 22.2892 133.190 main 1002 965 __________P___ -1 22.2892 133.190 7 7 336
1892198N18139 1892 25 WP MM NOT_NAMED 1892-07-19 03:00:00 NR 22.5976 133.045 main 965 954 __________P___ -1 22.5976 133.045 7 7 337
1892198N18139 1892 25 WP MM NOT_NAMED 1892-07-19 04:00:00 NR 22.7000 133.000 main 954 930 __________O___ -1 22.7000 133.000 7 7 339
1892198N18139 1892 25 WP MM NOT_NAMED 1892-07-19 06:00:00 NR 22.9000 132.917 main 930 895 __________P___ -1 22.9000 132.917 7 6 340
1892198N18139 1892 25 WP MM NOT_NAMED 1892-07-19 09:00:00 NR 23.1999 132.804 main 895 860 __________P___ -1 23.1999 132.804 7 6 342
1892198N18139 1892 25 WP MM NOT_NAMED 1892-07-19 12:00:00 NR 23.5000 132.707 main 860 825 __________P___ -1 23.5000 132.707 7 6 345
1892198N18139 1892 25 WP MM NOT_NAMED 1892-07-19 15:00:00 NR 23.8000 132.624 main 825 814 __________P___ -1 23.8000 132.624 7 6 347
1892198N18139 1892 25 WP MM NOT_NAMED 1892-07-19 16:00:00 NR 23.9000 132.600 main 814 792 __________O___ -1 23.9000 132.600 7 6 348
1892198N18139 1892 25 WP MM NOT_NAMED 1892-07-19 18:00:00 NR 24.0947 132.552 main 792 757 __________P___ -1 24.0947 132.552 7 6 349
1892198N18139 1892 25 WP MM NOT_NAMED 1892-07-19 21:00:00 NR 24.3867 132.494 main 757 722 __________P___ -1 24.3867 132.494 7 6 351
1892198N18139 1892 25 WP MM NOT_NAMED 1892-07-20 00:00:00 NR 24.6842 132.448 main 722 690 __________P___ -1 24.6842 132.448 7 6 353
1892198N18139 1892 25 WP MM NOT_NAMED 1892-07-20 03:00:00 NR 24.9933 132.411 main 690 679 __________P___ -1 24.9933 132.411 7 6 356
1892198N18139 1892 25 WP MM NOT_NAMED 1892-07-20 04:00:00 NR 25.1000 132.400 main 679 657 __________O___ -1 25.1000 132.400 7 7 353
1892198N18139 1892 25 WP MM NOT_NAMED 1892-07-20 06:00:00 NR 25.3219 132.378 main 657 614 __________P___ -1 25.3219 132.378 7 7 355
1892198N18139 1892 25 WP MM NOT_NAMED 1892-07-20 09:00:00 NR 25.6674 132.350 main 614 579 __________P___ -1 25.6674 132.350 7 7 356
1892198N18139 1892 25 WP MM NOT_NAMED 1892-07-20 12:00:00 NR 26.0225 132.328 main 579 536 __________P___ -1 26.0225 132.328 7 7 357
1892198N18139 1892 25 WP MM NOT_NAMED 1892-07-20 15:00:00 NR 26.3809 132.307 main 536 525 __________P___ -1 26.3809 132.307 7 7 357
1892198N18139 1892 25 WP MM NOT_NAMED 1892-07-20 16:00:00 NR 26.5000 132.300 main 525 504 __________O___ -1 26.5000 132.300 7 7 358
1892198N18139 1892 25 WP MM NOT_NAMED 1892-07-20 18:00:00 NR 26.7367 132.285 main 504 462 __________P___ -1 26.7367 132.285 7 7 357
1892198N18139 1892 25 WP MM NOT_NAMED 1892-07-20 21:00:00 NR 27.0885 132.261 main 462 427 __________P___ -1 27.0885 132.261 7 7 356
1892198N18139 1892 25 WP MM NOT_NAMED 1892-07-21 00:00:00 NR 27.4373 132.235 main 427 385 __________P___ -1 27.4373 132.235 7 7 358
1892198N18139 1892 25 WP MM NOT_NAMED 1892-07-21 03:00:00 NR 27.7844 132.209 main 385 375 __________P___ -1 27.7844 132.209 7 7 355
1892198N18139 1892 25 WP MM NOT_NAMED 1892-07-21 04:00:00 NR 27.9000 132.200 main 375 __________O___ -1 27.9000 132.200 7 7 347

デジタル台風データ・検索

IBTrACS Databaseについて

本データベースは、米国NOAAが公開する1842年以降の世界の熱帯低気圧のベストトラックデータアーカイブInternational Best Track Archive for Climate Stewardship (IBTrACS)を、ウェブで閲覧しやすい形式に変換したものです。

最終更新日:2021-10-21